Portada
METAR-TAF:

METAR-TAF

Aeropuertos :

Logan County Airport

Lincoln, Illinois, Estados Unidos

latitud: 40-09-31N, longitud: 089-20-06W, altitud: 182 m

Observación

El informe se hizo hace 19 minutos, a las 07:35 UTC
Viento calma
Temperatura 14°C
Humedad 58%
Presión 1024 hPa
Visibilidad: 16.1 km
Cielo despejado

METAR: KAAA 310735Z AUTO 00000KT 10SM CLR 14/06 A3024 RMK AO2 T01440062

Hora: 02:54 (07:54 UTC)


TAF: falta

Observaciones y pronósticos meteorológicos de más de 4000 aeropuertos (mensajes METAR y TAF).

Los puntos amarillos y rojos representan las estaciones disponibles.

Ponga el ratón en el punto deseado para ver el nombre de la estación.

Haga clic para ver las observaciones y los pronósticos meteorológicos.

Para cambiar el mapa : haga clic en los botones verdes con una cruz de color negro para hacer un zoom, en el botón verde con un guión para alejar o en las flechas verdes para mapas adyacentes.


METAR-TAF: